Latest Weather Observations for Rottnest Island

IDW60901

Issued at 5:01 am WST Monday 27 May 2024 (issued every 10 minutes, with the page automatically refreshed every 10 minutes)

About weather observations | Map of Perth area stations | Latest observations for Perth area | Other Formats
Station Details ID: 009193 Name: ROTTNEST ISLAND Lat: -32.01 Lon: 115.50 Height: 43.1 m
Data from the previous 72 hours. | See also: Recent months at Rottnest Island
Date/Time
WST
Temp
°C
App
Temp
°C
Dew
Point
°C
Rel
Hum
%
Delta-T
°C
Wind Press
QNH
hPa
Press
MSL
hPa
Rain since
9am
mm
Dir  Spd
km/h
Gust
km/h
Spd
kts
Gust
kts
27/05:00am 18.3 20.1 15.4 83 1.7 CALM 0 0 0 0 1019.2 1019.1 1.6
27/04:30am 17.8 18.0 15.8 88 1.2 S 9 11 5 6 1019.3 1019.2 1.6
27/04:00am 17.3 17.1 15.6 90 1.0 S 11 13 6 7 1019.4 1019.3 1.6
27/03:30am 17.1 17.0 16.0 93 0.6 S 11 13 6 7 1019.5 1019.4 1.6
27/03:00am 17.6 15.8 15.9 90 1.0 WSW 20 28 11 15 1019.8 1019.7 1.4
27/02:30am 18.9 17.5 13.5 71 3.1 WSW 13 17 7 9 1019.6 1019.5 1.4
27/02:00am 19.8 18.2 12.8 64 3.9 W 13 19 7 10 1019.8 1019.7 1.4
27/01:30am 19.5 18.0 13.2 67 3.6 NW 13 15 7 8 1019.9 1019.8 1.4
27/01:00am 19.0 17.9 13.0 68 3.4 NW 11 13 6 7 1020.0 1019.9 1.4
27/12:30am 19.2 17.2 12.7 66 3.7 NW 15 17 8 9 1020.3 1020.2 1.4
27/12:00am 18.8 16.7 12.3 66 3.6 WNW 15 17 8 9 1020.5 1020.4 1.4
 
Date/Time
WST
Temp
°C
App
Temp
°C
Dew
Point
°C
Rel
Hum
%
Delta-T
°C
Wind Press
QNH
hPa
Press
MSL
hPa
Rain since
9am
mm
Dir  Spd
km/h
Gust
km/h
Spd
kts
Gust
kts
26/11:30pm 18.8 17.0 12.1 65 3.7 NW 13 17 7 9 1020.6 1020.5 1.4
26/11:00pm 19.3 18.7 12.3 64 3.9 W 7 9 4 5 1020.8 1020.7 1.4
26/10:30pm 19.1 18.1 12.4 65 3.7 W 9 13 5 7 1021.1 1021.0 1.4
26/10:00pm 18.8 17.0 12.1 65 3.7 W 13 17 7 9 1021.3 1021.2 1.4
26/09:30pm 18.7 16.6 12.5 67 3.5 WSW 15 19 8 10 1021.4 1021.3 1.4
26/09:00pm 18.6 16.4 13.2 71 3.0 WSW 17 20 9 11 1021.5 1021.4 1.4
26/08:30pm 18.6 16.5 13.5 72 2.9 WNW 17 20 9 11 1021.6 1021.5 1.4
26/08:00pm 18.1 17.2 13.6 75 2.5 NNW 11 17 6 9 1021.5 1021.4 1.4
26/07:30pm 18.3 18.6 17.0 92 0.8 N 11 13 6 7 1021.3 1021.2 1.4
26/07:00pm 18.2 18.4 16.7 91 0.9 N 11 11 6 6 1021.2 1021.1 1.4
26/06:30pm 18.0 18.4 16.3 90 1.0 N 9 11 5 6 1021.1 1021.0 1.4
26/06:00pm 17.7 18.2 16.6 93 0.7 N 9 11 5 6 1020.8 1020.7 1.4
26/05:30pm 17.7 18.6 16.7 94 0.6 N 7 9 4 5 1020.7 1020.6 1.4
26/05:00pm 18.1 20.5 17.1 94 0.6 CALM 0 0 0 0 1020.7 1020.6 1.4
26/04:30pm 17.9 17.4 16.9 94 0.6 W 15 20 8 11 1021.0 1020.9 1.4
26/04:00pm 18.2 17.7 16.9 92 0.8 W 15 20 8 11 1021.0 1020.9 0.4
26/03:30pm 19.5 20.0 16.5 83 1.8 WNW 9 20 5 11 1020.7 1020.6 0.4
26/03:00pm 19.2 20.2 16.8 86 1.4 NNE 7 11 4 6 1020.4 1020.3 0.4
26/02:30pm 18.8 19.1 17.1 90 1.0 NNW 11 15 6 8 1020.6 1020.5 0.4
26/02:00pm 18.3 18.2 17.0 92 0.8 NW 13 19 7 10 1020.8 1020.7 0.4
26/01:30pm 18.2 17.2 16.7 91 0.9 W 17 24 9 13 1021.0 1020.9 0.2
26/01:00pm 19.3 17.1 16.9 86 1.4 W 24 28 13 15 1021.1 1021.0 0.2
26/12:30pm 21.8 17.6 16.3 71 3.3 NNW 33 41 18 22 1021.1 1021.0 0.2
26/12:00pm 22.2 18.1 16.5 70 3.5 N 33 41 18 22 1021.2 1021.1 0.0
26/11:30am 21.8 17.7 16.5 72 3.2 N 33 41 18 22 1021.4 1021.3 0.0
26/11:00am 21.1 17.5 16.3 74 2.9 N 30 37 16 20 1022.0 1021.9 0.0
26/10:30am 20.8 16.8 16.2 75 2.8 N 32 39 17 21 1022.1 1022.0 0.0
26/10:00am 20.9 17.6 16.9 78 2.4 N 30 41 16 22 1022.3 1022.2 0.0
26/09:30am 20.2 16.6 16.2 78 2.4 N 30 39 16 21 1022.3 1022.2 0.0
26/09:00am 19.8 16.2 16.3 80 2.1 NNE 30 41 16 22 1022.2 1022.1 1.0
26/08:30am 19.3 16.1 16.2 82 1.9 N 28 39 15 21 1022.1 1022.0 1.0
26/08:00am 18.8 15.5 16.0 84 1.7 N 28 35 15 19 1022.0 1021.9 1.0
26/07:30am 18.0 14.8 15.4 85 1.5 NNE 26 33 14 18 1021.9 1021.8 1.0
26/07:00am 17.9 14.7 15.3 85 1.5 NNE 26 33 14 18 1021.7 1021.6 1.0
26/06:30am 17.9 14.8 15.5 86 1.4 NNE 26 35 14 19 1021.6 1021.5 1.0
26/06:00am 17.9 15.5 15.5 86 1.4 NNE 22 28 12 15 1021.5 1021.4 1.0
26/05:30am 18.0 15.9 15.3 84 1.6 NNE 20 30 11 16 1021.3 1021.2 1.0
26/05:00am 18.1 16.0 15.2 83 1.7 NNE 20 24 11 13 1021.1 1021.0 1.0
26/04:30am 17.8 15.9 15.1 84 1.6 NNE 19 24 10 13 1021.0 1020.9 1.0
26/04:00am 18.1 17.0 15.4 84 1.6 NNE 15 20 8 11 1020.9 1020.8 1.0
26/03:30am 18.4 16.3 15.3 82 1.8 NNE 20 24 11 13 1020.7 1020.6 1.0
26/03:00am 17.9 16.8 15.3 85 1.5 NNE 15 17 8 9 1020.8 1020.7 1.0
26/02:30am 17.7 16.6 15.3 86 1.4 NNE 15 17 8 9 1020.8 1020.7 1.0
26/02:00am 17.7 16.7 15.5 87 1.3 NNE 15 19 8 10 1020.7 1020.6 1.0
26/01:30am 17.9 16.9 15.7 87 1.3 NE 15 19 8 10 1020.5 1020.4 1.0
26/01:00am 18.0 17.4 15.6 86 1.4 NE 13 17 7 9 1020.5 1020.4 1.0
26/12:30am 18.3 17.8 15.9 86 1.4 NE 13 15 7 8 1020.7 1020.6 1.0
26/12:00am 18.3 17.7 15.7 85 1.5 NE 13 17 7 9 1020.7 1020.6 1.0
 
Date/Time
WST
Temp
°C
App
Temp
°C
Dew
Point
°C
Rel
Hum
%
Delta-T
°C
Wind Press
QNH
hPa
Press
MSL
hPa
Rain since
9am
mm
Dir  Spd
km/h
Gust
km/h
Spd
kts
Gust
kts
25/11:30pm 18.2 17.7 16.0 87 1.3 NE 13 17 7 9 1020.8 1020.7 1.0
25/11:00pm 18.0 17.5 15.8 87 1.3 ENE 13 15 7 8 1020.8 1020.7 1.0
25/10:30pm 18.1 17.7 16.1 88 1.2 NE 13 15 7 8 1020.9 1020.8 1.0
25/10:00pm 18.4 18.4 16.2 87 1.3 NE 11 15 6 8 1021.1 1021.0 1.0
25/09:30pm 18.8 18.6 15.7 82 1.8 ENE 11 15 6 8 1021.0 1020.9 1.0
25/09:00pm 20.3 17.8 14.2 68 3.5 S 20 24 11 13 1020.7 1020.6 1.0
25/08:30pm 19.7 17.4 14.1 70 3.2 S 19 24 10 13 1020.6 1020.5 1.0
25/08:00pm 18.6 16.7 15.3 81 1.9 SSW 19 26 10 14 1020.5 1020.4 1.0
25/07:30pm 19.5 19.1 16.3 82 1.9 SSE 13 19 7 10 1020.3 1020.2 0.8
25/07:00pm 19.1 18.2 16.9 87 1.3 SSE 17 19 9 10 1020.0 1019.9 0.8
25/06:30pm 18.9 16.7 16.9 88 1.2 SSW 24 32 13 17 1019.8 1019.7 0.8
25/06:00pm 18.9 16.1 16.3 85 1.6 SSW 26 33 14 18 1019.3 1019.2 0.8
25/05:30pm 19.6 17.3 16.6 83 1.8 SW 24 39 13 21 1019.1 1019.0 0.8
25/05:28pm 19.9 18.1 16.9 83 1.8 WSW 22 39 12 21 1019.1 1019.0 0.8
25/05:00pm 20.1 19.6 15.9 77 2.5 WSW 13 20 7 11 1018.6 1018.5 0.8
25/04:30pm 18.9 15.2 16.1 84 1.7 WNW 30 39 16 21 1018.3 1018.2 0.8
25/04:25pm 19.2 14.7 16.4 84 1.7 WNW 35 54 19 29 1018.3 1018.2 0.8
25/04:17pm 20.2 17.6 16.0 77 2.5 WNW 24 54 13 29 1018.2 1018.1 0.8
25/04:00pm 22.1 21.2 15.9 68 3.7 NW 15 19 8 10 1018.0 1017.9 0.8
25/03:30pm 20.8 17.9 16.2 75 2.8 NNW 26 30 14 16 1017.8 1017.7 0.8
25/03:00pm 22.4 19.4 14.8 62 4.5 W 24 32 13 17 1017.6 1017.5 0.8
25/02:30pm 21.5 20.7 16.2 72 3.2 WSW 15 20 8 11 1017.3 1017.2 0.8
25/02:00pm 22.4 19.3 15.7 66 4.0 WNW 26 33 14 18 1017.1 1017.0 0.8
25/01:30pm 22.7 20.0 16.7 69 3.7 WNW 26 35 14 19 1017.1 1017.0 0.8
25/01:00pm 21.3 19.2 17.1 77 2.6 WNW 24 30 13 16 1017.2 1017.1 0.8
25/12:30pm 22.9 19.2 15.0 61 4.7 WNW 28 35 15 19 1017.1 1017.0 0.2
25/12:00pm 23.3 19.6 15.1 60 4.9 WNW 28 35 15 19 1017.2 1017.1 0.2
25/11:30am 23.2 20.8 16.3 65 4.2 WNW 24 30 13 16 1017.2 1017.1 0.2
25/11:00am 22.6 20.1 16.2 67 3.9 W 24 33 13 18 1017.3 1017.2 0.2
25/10:30am 21.6 17.6 16.1 71 3.3 W 32 43 17 23 1017.2 1017.1 0.2
25/10:12am 22.2 19.1 16.5 70 3.5 WNW 28 46 15 25 1017.2 1017.1 0.0
25/10:00am 22.1 18.2 15.5 66 3.9 W 30 41 16 22 1017.1 1017.0 0.0
25/09:30am 22.8 18.4 15.1 62 4.6 WNW 32 37 17 20 1016.6 1016.5 0.0
25/09:00am 22.6 19.2 15.7 65 4.1 WNW 28 35 15 19 1016.2 1016.1 0.4
25/08:30am 21.9 18.2 15.0 65 4.1 WNW 28 35 15 19 1015.7 1015.6 0.4
25/08:00am 21.7 19.0 15.5 68 3.7 WNW 24 33 13 18 1015.4 1015.3 0.4
25/07:30am 20.8 17.1 14.0 65 3.9 WNW 26 33 14 18 1015.2 1015.1 0.4
25/07:00am 21.0 15.6 12.9 60 4.6 WNW 33 43 18 23 1015.0 1014.9 0.4
25/06:30am 21.0 15.8 13.4 62 4.4 WNW 33 44 18 24 1014.8 1014.7 0.4
25/06:00am 21.0 16.6 15.1 69 3.5 W 32 44 17 24 1014.6 1014.5 0.4
25/05:30am 21.2 15.6 14.4 65 4.0 W 37 48 20 26 1014.4 1014.3 0.4
25/05:00am 21.1 15.5 15.6 71 3.3 WNW 39 50 21 27 1013.9 1013.8 0.4
25/04:30am 20.9 15.9 16.1 74 2.9 WNW 37 48 20 26 1013.6 1013.5 0.4
25/04:00am 21.0 15.8 16.6 76 2.7 WNW 39 52 21 28 1013.4 1013.3 0.4
25/03:30am 20.7 17.3 17.7 83 1.9 WNW 32 41 17 22 1013.0 1012.9 0.4
25/03:13am 20.7 17.3 17.7 83 1.9 NW 32 50 17 27 1013.1 1013.0 0.4
25/03:00am 19.8 16.1 17.4 86 1.5 WNW 33 46 18 25 1012.9 1012.8 0.4
25/02:30am 21.7 17.8 16.4 72 3.2 NW 32 43 17 23 1012.8 1012.7 0.0
25/02:00am 21.5 17.9 17.3 77 2.6 NW 32 41 17 22 1013.0 1012.9 0.0
25/01:30am 22.1 18.7 16.8 72 3.2 NW 30 37 16 20 1013.0 1012.9 0.0
25/01:00am 22.0 18.0 16.1 69 3.6 NW 32 41 17 22 1013.1 1013.0 0.0
25/12:30am 22.0 17.9 16.5 71 3.3 NW 33 43 18 23 1013.2 1013.1 0.0
25/12:00am 22.0 17.9 16.5 71 3.3 NW 33 43 18 23 1013.2 1013.1 0.0
 
Date/Time
WST
Temp
°C
App
Temp
°C
Dew
Point
°C
Rel
Hum
%
Delta-T
°C
Wind Press
QNH
hPa
Press
MSL
hPa
Rain since
9am
mm
Dir  Spd
km/h
Gust
km/h
Spd
kts
Gust
kts
24/11:30pm 22.1 18.2 16.4 70 3.5 NW 32 41 17 22 1013.3 1013.2 0.0
24/11:00pm 22.3 18.3 16.8 71 3.4 NW 33 41 18 22 1013.4 1013.3 0.0
24/10:30pm 22.1 18.8 17.0 73 3.1 NW 30 41 16 22 1013.2 1013.1 0.0
24/10:00pm 22.2 18.9 17.1 73 3.1 NW 30 37 16 20 1013.2 1013.1 0.0
24/09:30pm 21.9 20.3 17.5 76 2.7 NW 22 32 12 17 1013.1 1013.0 0.0
24/09:00pm 21.4 18.0 16.8 75 2.8 WNW 30 39 16 21 1013.2 1013.1 0.0
24/08:30pm 22.5 19.0 16.5 69 3.7 NW 30 37 16 20 1013.0 1012.9 0.0
24/08:00pm 22.4 19.3 15.5 65 4.1 NW 26 33 14 18 1012.9 1012.8 0.0
24/07:30pm 22.4 18.9 15.5 65 4.1 NW 28 35 15 19 1012.7 1012.6 0.0
24/07:00pm 22.5 19.5 15.8 66 4.0 NW 26 33 14 18 1012.5 1012.4 0.0
24/06:30pm 22.5 20.0 17.0 71 3.4 NW 26 37 14 20 1012.3 1012.2 0.0
24/06:00pm 22.5 19.6 17.0 71 3.4 NW 28 35 15 19 1012.2 1012.1 0.0
24/05:30pm 22.7 19.9 17.4 72 3.3 NW 28 35 15 19 1012.2 1012.1 0.0
24/05:00pm 23.1 20.0 16.6 67 4.0 NW 28 35 15 19 1012.0 1011.9 0.0
24/04:30pm 23.9 20.5 15.9 61 4.9 NNW 28 33 15 18 1011.8 1011.7 0.0
24/04:00pm 24.2 20.8 15.7 59 5.2 NNW 28 35 15 19 1011.7 1011.6 0.0
24/03:30pm 24.0 21.3 17.5 67 4.0 NNW 28 33 15 18 1011.5 1011.4 0.0
24/03:00pm 24.0 21.7 18.4 71 3.5 NNW 28 35 15 19 1011.5 1011.4 0.0
24/02:30pm 23.8 20.7 17.5 68 3.9 NNW 30 33 16 18 1011.6 1011.5 0.0
24/02:00pm 24.6 22.2 17.3 64 4.5 N 26 35 14 19 1011.5 1011.4 0.0
24/01:30pm 23.9 20.4 15.4 59 5.1 N 28 35 15 19 1011.7 1011.6 0.0
24/01:00pm 23.5 19.4 13.9 55 5.6 N 28 35 15 19 1011.8 1011.7 0.0
24/12:30pm 23.6 19.2 14.0 55 5.6 N 30 35 16 19 1012.2 1012.1 0.0
24/12:00pm 22.7 18.2 12.6 53 5.8 N 28 33 15 18 1012.3 1012.2 0.0
24/11:30am 23.0 18.6 12.9 53 5.8 N 28 33 15 18 1012.5 1012.4 0.0
24/11:00am 22.7 18.4 12.0 50 6.0 N 26 35 14 19 1012.9 1012.8 0.0
24/10:30am 22.3 17.6 12.0 52 5.8 N 28 33 15 18 1013.0 1012.9 0.0
24/10:00am 21.9 17.2 11.9 53 5.6 N 28 35 15 19 1013.0 1012.9 0.0
24/09:30am 21.6 17.1 11.3 52 5.7 N 26 33 14 18 1012.9 1012.8 0.0
24/09:00am 20.5 15.2 10.0 51 5.7 N 28 37 15 20 1012.8 1012.7 0.0
24/08:30am 20.0 14.0 7.1 43 6.6 N 28 37 15 20 1012.5 1012.4 0.0
24/08:00am 19.9 14.5 6.3 41 6.8 N 24 28 13 15 1012.2 1012.1 0.0
24/07:30am 19.1 13.7 6.2 43 6.4 NNE 24 32 13 17 1011.9 1011.8 0.0
24/07:00am 19.1 13.5 5.2 40 6.8 NNE 24 30 13 16 1011.4 1011.3 0.0
24/06:30am 19.1 13.5 5.6 41 6.6 NNE 24 32 13 17 1011.2 1011.1 0.0
24/06:00am 19.1 13.3 4.5 38 7.0 NNE 24 28 13 15 1011.4 1011.3 0.0
24/05:30am 19.5 13.4 4.8 38 7.1 NNE 26 32 14 17 1011.6 1011.5 0.0

Latest Capital City Observations: Canberra | Sydney | Melbourne | Brisbane | Adelaide | Perth | Hobart | Darwin

Other formats

Comma delimited format used in spreadsheet applications
http://www.bom.gov.au/fwo/IDW60901/IDW60901.94602.axf

JavaScript Object Notation format (JSON) in row-major order
http://www.bom.gov.au/fwo/IDW60901/IDW60901.94602.json

Data quality

Most of these data are generated automatically and are frequently updated. Quality checks on data are not normally performed. It is possible for incorrect values to appear. Refer to information at About Latest Weather Observations and please check the disclaimer before using these data.